Time;durP1;ratioP1;P1;durP2;ratioP2;P2;SDS_P1;SDS_P2;PMS_P1;PMS_P2;Temp;Humidity;BMP_temperature;BMP_pressure;BME280_temperature;BME280_humidity;BME280_pressure;Samples;Min_cycle;Max_cycle;Signal;HPM_P1;HPM_P2
2022/05/24 00:01:20;;;;;;;1.23;1.20;;;16.00;86.00;;;;;;5070568;28;20570;-60
2022/05/24 00:03:47;;;;;;;1.90;1.30;;;15.90;86.00;;;;;;5069562;28;20210;-60
2022/05/24 00:06:17;;;;;;;1.40;1.30;;;15.90;86.00;;;;;;5070025;28;20624;-60
2022/05/24 00:08:45;;;;;;;1.37;1.27;;;15.90;86.10;;;;;;5068117;28;20640;-59
2022/05/24 00:11:12;;;;;;;1.27;1.20;;;15.90;86.10;;;;;;5068492;28;20641;-59
2022/05/24 00:13:39;;;;;;;1.63;1.53;;;15.80;86.10;;;;;;5069988;28;20666;-59
2022/05/24 00:16:07;;;;;;;1.47;1.37;;;15.80;86.00;;;;;;5070321;28;20193;-60
2022/05/24 00:18:35;;;;;;;1.43;1.33;;;15.80;86.00;;;;;;5069058;28;20601;-60
2022/05/24 00:21:04;;;;;;;1.30;1.20;;;15.80;86.00;;;;;;5070298;28;20682;-60
2022/05/24 00:23:33;;;;;;;1.33;1.30;;;15.80;86.00;;;;;;5062002;28;20460;-59
2022/05/24 00:26:03;;;;;;;1.37;1.27;;;15.70;85.90;;;;;;5064313;28;20193;-59
2022/05/24 00:28:32;;;;;;;1.40;1.30;;;15.70;85.90;;;;;;5057412;28;20203;-59
2022/05/24 00:31:01;;;;;;;1.13;1.13;;;15.70;86.00;;;;;;5070355;28;20208;-60
2022/05/24 00:33:28;;;;;;;1.60;1.50;;;15.70;86.00;;;;;;5069363;28;20200;-60
2022/05/24 00:35:56;;;;;;;1.50;1.40;;;15.70;86.10;;;;;;5070095;28;20201;-60
2022/05/24 00:38:27;;;;;;;1.33;1.27;;;15.70;86.10;;;;;;5068588;28;20201;-59
2022/05/24 00:41:07;;;;;;;1.60;1.40;;;15.70;86.10;;;;;;5101426;28;20867;-59
2022/05/24 00:43:39;;;;;;;1.50;1.40;;;15.70;86.00;;;;;;5069605;28;20708;-60
2022/05/24 00:46:12;;;;;;;1.57;1.47;;;15.60;86.00;;;;;;5069824;28;20205;-60
2022/05/24 00:48:48;;;;;;;1.60;1.50;;;15.60;86.10;;;;;;5069303;28;20621;-59
2022/05/24 00:51:21;;;;;;;1.40;1.30;;;15.50;86.10;;;;;;5067618;28;20192;-59
2022/05/24 00:53:53;;;;;;;1.70;1.60;;;15.50;86.10;;;;;;5100039;28;20206;-60
2022/05/24 00:56:35;;;;;;;1.33;1.30;;;15.50;86.20;;;;;;5069760;28;20230;-60
2022/05/24 00:59:07;;;;;;;1.60;1.50;;;15.50;86.20;;;;;;5068851;28;20189;-60
2022/05/24 01:01:38;;;;;;;1.10;1.10;;;15.50;86.20;;;;;;5068019;28;20204;-60
2022/05/24 01:04:06;;;;;;;1.60;1.43;;;15.50;86.30;;;;;;5065832;28;20593;-60
2022/05/24 01:06:34;;;;;;;1.10;1.10;;;15.40;86.20;;;;;;5069076;28;20222;-60
2022/05/24 01:09:04;;;;;;;1.50;1.40;;;15.40;86.20;;;;;;5065150;28;20196;-60
2022/05/24 01:11:39;;;;;;;1.50;1.40;;;15.50;86.30;;;;;;5068398;28;20594;-60
2022/05/24 01:14:07;;;;;;;1.50;1.40;;;15.40;86.20;;;;;;5069183;28;20193;-60
2022/05/24 01:16:35;;;;;;;1.43;1.33;;;15.40;86.30;;;;;;5069077;28;20280;-60
2022/05/24 01:19:05;;;;;;;1.63;1.40;;;15.40;86.50;;;;;;5068395;28;20266;-60
2022/05/24 01:21:33;;;;;;;1.20;1.20;;;15.40;86.50;;;;;;5064207;28;20261;-60
2022/05/24 01:24:08;;;;;;;1.63;1.53;;;15.40;86.60;;;;;;5057625;28;20208;-60
2022/05/24 01:26:49;;;;;;;1.40;1.30;;;15.30;86.50;;;;;;5067484;28;20258;-61
2022/05/24 01:29:18;;;;;;;1.03;1.03;;;15.30;86.50;;;;;;5068875;28;20247;-62
2022/05/24 01:37:16;;;;;;;1.17;1.07;;;15.30;86.60;;;;;;5063194;28;20216;-58
2022/05/24 01:39:46;;;;;;;1.13;1.13;;;15.30;86.60;;;;;;5068804;28;20618;-59
2022/05/24 01:42:16;;;;;;;1.20;1.10;;;15.30;86.70;;;;;;5068163;28;20192;-59
2022/05/24 01:44:49;;;;;;;1.10;1.10;;;15.20;86.60;;;;;;5068178;28;20200;-59
2022/05/24 01:47:18;;;;;;;1.30;1.20;;;15.20;86.60;;;;;;5068118;28;20241;-59
2022/05/24 01:49:50;;;;;;;0.97;0.93;;;15.20;86.70;;;;;;5066380;28;20186;-59
2022/05/24 01:52:22;;;;;;;1.30;1.30;;;15.20;86.70;;;;;;5066936;28;20198;-59
2022/05/24 01:54:52;;;;;;;1.30;1.20;;;15.20;86.70;;;;;;5069266;28;20185;-60
2022/05/24 01:57:24;;;;;;;1.53;1.20;;;15.20;86.80;;;;;;5068156;28;20194;-60
2022/05/24 01:59:53;;;;;;;1.47;1.03;;;15.20;86.70;;;;;;5067810;28;20209;-60
2022/05/24 02:02:21;;;;;;;1.07;1.07;;;15.20;86.70;;;;;;5068245;28;20189;-59
2022/05/24 02:04:48;;;;;;;1.10;1.10;;;15.20;86.80;;;;;;5067701;28;20678;-60
2022/05/24 02:07:18;;;;;;;1.20;1.20;;;15.20;86.80;;;;;;5066874;28;20198;-60
2022/05/24 02:09:48;;;;;;;1.07;1.03;;;15.20;86.80;;;;;;5068983;28;20276;-58
2022/05/24 02:12:18;;;;;;;1.40;1.30;;;15.20;86.80;;;;;;5066641;28;20552;-59
2022/05/24 02:14:51;;;;;;;1.57;1.40;;;15.10;86.80;;;;;;5068993;28;20249;-59
2022/05/24 02:17:23;;;;;;;1.70;1.60;;;15.10;86.80;;;;;;5068373;28;20189;-59
2022/05/24 02:19:54;;;;;;;1.60;1.50;;;15.10;86.80;;;;;;5069053;28;20217;-59
2022/05/24 02:22:23;;;;;;;1.30;1.30;;;15.10;86.80;;;;;;5066335;28;20314;-59
2022/05/24 02:24:57;;;;;;;2.50;2.00;;;15.10;87.60;;;;;;5056039;28;20649;-59
2022/05/24 02:27:24;;;;;;;1.90;1.80;;;15.10;87.00;;;;;;5068746;28;20196;-58
2022/05/24 02:29:54;;;;;;;1.63;1.53;;;15.10;86.90;;;;;;5101802;28;20655;-59
2022/05/24 02:32:21;;;;;;;2.87;1.30;;;15.00;86.90;;;;;;5069465;28;20270;-60
2022/05/24 02:34:48;;;;;;;1.67;1.57;;;15.00;87.30;;;;;;5072724;28;20199;-60
2022/05/24 02:37:16;;;;;;;2.73;1.40;;;14.90;87.00;;;;;;5070485;28;20539;-60
2022/05/24 02:42:27;;;;;;;1.43;1.33;;;14.90;87.10;;;;;;5071631;28;20703;-60
2022/05/24 02:44:56;;;;;;;1.40;1.30;;;14.90;87.10;;;;;;5072295;28;20189;-60
2022/05/24 02:47:25;;;;;;;1.40;1.20;;;14.90;87.10;;;;;;5072060;28;20229;-60
2022/05/24 02:49:52;;;;;;;1.60;1.20;;;14.90;87.10;;;;;;5072388;28;20563;-60
2022/05/24 02:52:19;;;;;;;2.73;1.40;;;14.90;87.10;;;;;;5069879;28;20190;-58
2022/05/24 02:54:46;;;;;;;1.30;1.20;;;14.90;87.20;;;;;;5072428;28;20603;-59
2022/05/24 02:57:14;;;;;;;1.60;1.50;;;14.80;87.20;;;;;;5071633;28;20208;-60
2022/05/24 02:59:41;;;;;;;1.40;1.30;;;14.80;87.20;;;;;;5072117;28;20298;-60
2022/05/24 03:02:09;;;;;;;1.40;1.30;;;14.80;87.30;;;;;;5071428;28;20282;-60
2022/05/24 03:04:36;;;;;;;1.50;1.40;;;14.80;87.40;;;;;;5070292;28;20203;-60
2022/05/24 03:09:48;;;;;;;1.03;1.03;;;14.80;87.60;;;;;;5071531;28;20670;-60
2022/05/24 03:15:00;;;;;;;1.70;1.60;;;14.80;87.60;;;;;;5071141;28;20513;-60
2022/05/24 03:17:28;;;;;;;1.67;1.57;;;14.80;87.70;;;;;;5071095;28;20197;-60
2022/05/24 03:19:56;;;;;;;1.77;1.67;;;14.80;87.80;;;;;;5071317;28;20216;-60
2022/05/24 03:22:23;;;;;;;2.87;1.30;;;14.80;87.80;;;;;;5068854;28;20601;-60
2022/05/24 03:24:50;;;;;;;1.70;1.60;;;14.70;87.70;;;;;;5058225;28;20204;-60
2022/05/24 03:27:18;;;;;;;1.30;1.20;;;14.80;88.00;;;;;;5071457;28;20232;-60
2022/05/24 03:29:48;;;;;;;1.67;1.57;;;14.80;87.90;;;;;;5071333;28;20560;-59
2022/05/24 03:32:16;;;;;;;1.63;1.53;;;14.80;87.80;;;;;;5071368;28;20208;-60
2022/05/24 03:34:45;;;;;;;1.70;1.60;;;14.80;88.00;;;;;;5071220;28;20209;-60
2022/05/24 03:37:12;;;;;;;1.73;1.63;;;14.80;87.90;;;;;;5069967;28;20196;-60
2022/05/24 03:39:40;;;;;;;1.57;1.47;;;14.70;88.60;;;;;;5071087;28;20204;-60
2022/05/24 03:42:07;;;;;;;1.90;1.80;;;14.70;87.90;;;;;;5070936;28;20231;-60
2022/05/24 03:44:34;;;;;;;1.50;1.40;;;14.70;88.10;;;;;;5069878;28;20197;-60
2022/05/24 03:47:02;;;;;;;1.80;1.70;;;14.70;88.10;;;;;;5066098;28;20251;-60
2022/05/24 03:49:29;;;;;;;1.77;1.67;;;14.70;88.20;;;;;;5068850;28;20646;-60
2022/05/24 03:51:57;;;;;;;2.27;1.90;;;14.60;88.20;;;;;;5069231;28;20258;-59
2022/05/24 03:54:24;;;;;;;1.70;1.60;;;14.60;88.40;;;;;;5069265;28;20679;-60
2022/05/24 03:59:37;;;;;;;2.50;2.30;;;14.60;88.50;;;;;;5059384;28;20192;-60
2022/05/24 04:02:05;;;;;;;2.00;1.90;;;14.60;88.70;;;;;;5068493;28;20214;-60
2022/05/24 04:04:32;;;;;;;2.00;1.90;;;14.50;88.70;;;;;;5070127;28;20672;-60
2022/05/24 04:07:01;;;;;;;2.17;2.00;;;14.50;88.90;;;;;;5066781;28;20556;-60
2022/05/24 04:09:28;;;;;;;1.90;1.80;;;14.50;88.90;;;;;;5069624;28;20199;-60
2022/05/24 04:11:55;;;;;;;2.53;2.33;;;14.50;89.00;;;;;;5069373;28;20188;-60
2022/05/24 04:14:23;;;;;;;2.23;2.07;;;14.50;89.10;;;;;;5070123;28;20231;-60
2022/05/24 04:16:52;;;;;;;2.10;2.00;;;14.50;89.30;;;;;;5070167;28;20219;-61
2022/05/24 04:19:20;;;;;;;2.03;1.90;;;14.50;89.40;;;;;;5067809;28;20203;-59
2022/05/24 04:21:47;;;;;;;2.30;2.10;;;14.50;89.60;;;;;;5067890;28;20222;-60
2022/05/24 04:24:16;;;;;;;3.20;2.70;;;14.50;89.70;;;;;;5056842;28;20201;-60
2022/05/24 04:26:43;;;;;;;2.57;2.37;;;14.50;89.90;;;;;;5069577;28;20194;-60
2022/05/24 04:29:11;;;;;;;2.90;2.60;;;14.50;90.00;;;;;;5068347;28;20801;-61
2022/05/24 04:31:38;;;;;;;2.50;2.30;;;14.50;90.00;;;;;;5070090;28;20202;-60
2022/05/24 04:34:06;;;;;;;2.70;2.30;;;14.50;90.10;;;;;;5069877;28;20257;-60
2022/05/24 04:36:33;;;;;;;2.53;2.33;;;14.50;90.10;;;;;;5067969;28;20248;-60
2022/05/24 04:39:01;;;;;;;2.23;2.10;;;14.60;90.20;;;;;;5068215;28;20202;-59
2022/05/24 04:44:14;;;;;;;1.83;1.73;;;14.60;90.20;;;;;;5068074;28;20227;-60
2022/05/24 04:49:25;;;;;;;2.30;1.97;;;14.70;90.30;;;;;;5069315;28;20206;-61
2022/05/24 04:51:53;;;;;;;2.40;2.13;;;14.70;90.30;;;;;;5069725;28;20253;-60
2022/05/24 04:54:22;;;;;;;2.90;2.00;;;14.80;90.40;;;;;;5067856;28;20290;-60
2022/05/24 04:56:50;;;;;;;2.87;2.50;;;14.80;90.40;;;;;;5061678;28;20200;-60
2022/05/24 04:59:18;;;;;;;2.53;2.33;;;14.80;90.40;;;;;;5070674;28;20195;-60
2022/05/24 05:01:45;;;;;;;2.97;2.70;;;14.80;90.50;;;;;;5067957;28;20612;-59
2022/05/24 05:04:13;;;;;;;3.97;3.03;;;14.80;90.50;;;;;;5065658;28;20706;-59
2022/05/24 05:06:44;;;;;;;2.77;2.53;;;14.80;90.60;;;;;;5067758;28;20196;-59
2022/05/24 05:09:12;;;;;;;2.27;2.07;;;14.80;90.70;;;;;;5067700;28;20609;-60
2022/05/24 05:11:39;;;;;;;2.33;2.13;;;14.80;90.80;;;;;;5069026;28;20578;-61
2022/05/24 05:14:09;;;;;;;2.23;2.03;;;14.90;90.90;;;;;;5069213;28;20655;-59
2022/05/24 05:16:37;;;;;;;1.83;1.73;;;14.90;91.00;;;;;;5069186;28;20200;-60
2022/05/24 05:19:04;;;;;;;7.33;1.60;;;15.00;91.10;;;;;;5069429;28;20589;-60
2022/05/24 05:21:33;;;;;;;2.63;2.43;;;15.00;91.10;;;;;;5068961;28;20215;-60
2022/05/24 05:24:00;;;;;;;2.10;1.90;;;15.10;91.10;;;;;;5058067;28;20201;-60
2022/05/24 05:26:27;;;;;;;2.03;1.93;;;15.20;91.10;;;;;;5066545;28;20200;-59
2022/05/24 05:28:54;;;;;;;2.03;1.93;;;15.20;91.10;;;;;;5069023;28;20200;-59
2022/05/24 05:31:24;;;;;;;1.90;1.80;;;15.20;91.10;;;;;;5069075;28;20614;-60
2022/05/24 05:33:52;;;;;;;2.17;1.97;;;15.30;91.10;;;;;;5068963;28;20191;-60
2022/05/24 05:36:21;;;;;;;2.20;2.10;;;15.30;91.20;;;;;;5068366;28;20682;-61
2022/05/24 05:38:49;;;;;;;2.73;2.10;;;15.40;91.20;;;;;;5067838;28;20204;-60
2022/05/24 05:41:18;;;;;;;2.10;2.00;;;15.40;91.30;;;;;;5068550;28;20223;-60
2022/05/24 05:43:46;;;;;;;2.33;2.17;;;15.40;91.40;;;;;;5068232;28;20191;-60
2022/05/24 05:46:14;;;;;;;2.53;2.33;;;15.40;91.60;;;;;;5069484;28;20211;-60
2022/05/24 05:48:43;;;;;;;2.40;2.30;;;15.30;91.70;;;;;;5068373;28;20232;-60
2022/05/24 05:51:12;;;;;;;1.93;1.83;;;15.40;91.80;;;;;;5068086;28;20192;-60
2022/05/24 05:53:39;;;;;;;1.90;1.70;;;15.40;91.90;;;;;;5067557;28;20200;-60
2022/05/24 05:56:13;;;;;;;2.13;1.93;;;15.50;92.00;;;;;;5069589;28;20197;-60
2022/05/24 05:58:40;;;;;;;1.57;1.47;;;15.50;92.10;;;;;;5068661;28;20656;-60
2022/05/24 06:01:13;;;;;;;1.70;1.60;;;15.60;92.10;;;;;;5068619;28;20690;-59
2022/05/24 06:03:42;;;;;;;1.70;1.60;;;15.60;92.20;;;;;;5063957;28;20209;-59
2022/05/24 06:06:10;;;;;;;2.40;2.20;;;15.70;92.30;;;;;;5068922;28;20632;-59
2022/05/24 06:08:38;;;;;;;3.83;2.20;;;15.70;92.50;;;;;;5069603;28;20197;-60
2022/05/24 06:11:05;;;;;;;4.27;2.53;;;15.80;92.60;;;;;;5071904;28;20210;-60
2022/05/24 06:13:32;;;;;;;2.30;2.10;;;15.90;92.80;;;;;;5071671;28;20616;-60
2022/05/24 06:16:00;;;;;;;2.40;2.20;;;15.90;92.80;;;;;;5072724;28;20221;-60
2022/05/24 06:18:27;;;;;;;3.43;2.63;;;16.00;92.90;;;;;;5072082;28;20542;-61
2022/05/24 06:20:56;;;;;;;2.63;2.43;;;16.10;93.00;;;;;;5070365;28;20217;-59
2022/05/24 06:23:25;;;;;;;2.80;2.60;;;16.10;93.00;;;;;;5065954;28;20201;-60
2022/05/24 06:25:52;;;;;;;4.83;3.40;;;16.20;93.20;;;;;;5065769;28;20201;-60
2022/05/24 06:28:20;;;;;;;2.87;2.60;;;16.30;93.20;;;;;;5104545;27;20259;-59
2022/05/24 06:30:47;;;;;;;3.10;2.80;;;16.40;93.20;;;;;;5073087;28;20197;-60
2022/05/24 06:33:16;;;;;;;2.70;2.50;;;16.40;93.20;;;;;;5072982;28;20189;-60
2022/05/24 06:35:43;;;;;;;5.70;2.17;;;16.50;93.20;;;;;;5072564;28;20619;-60
2022/05/24 06:38:12;;;;;;;2.90;2.50;;;16.60;93.20;;;;;;5070525;28;20189;-60
2022/05/24 06:40:40;;;;;;;2.50;2.30;;;16.70;93.20;;;;;;5072257;28;20221;-59
2022/05/24 06:43:07;;;;;;;2.50;2.20;;;16.80;93.30;;;;;;5071715;28;20211;-60
2022/05/24 06:45:34;;;;;;;5.00;2.80;;;16.90;93.20;;;;;;5071836;28;20629;-60
2022/05/24 06:48:02;;;;;;;4.30;2.60;;;17.00;93.10;;;;;;5071331;28;20301;-60
2022/05/24 06:50:29;;;;;;;3.50;2.43;;;17.00;92.90;;;;;;5071962;28;20201;-61
2022/05/24 06:52:57;;;;;;;6.37;3.03;;;17.10;92.90;;;;;;5069441;28;20215;-59
2022/05/24 06:55:26;;;;;;;4.00;3.10;;;17.20;92.80;;;;;;5071861;28;20198;-60
2022/05/24 06:57:53;;;;;;;2.70;2.50;;;17.30;92.60;;;;;;5071948;28;20630;-60
2022/05/24 07:03:08;;;;;;;2.90;2.60;;;17.50;92.10;;;;;;5068122;28;20209;-60
2022/05/24 07:05:36;;;;;;;4.53;2.67;;;17.60;91.80;;;;;;5072088;28;20199;-60
2022/05/24 07:08:04;;;;;;;2.97;2.67;;;17.70;91.30;;;;;;5069258;28;20693;-60
2022/05/24 07:10:34;;;;;;;3.07;2.73;;;17.70;90.90;;;;;;5071372;28;20194;-60
2022/05/24 07:13:04;;;;;;;3.87;2.90;;;17.80;90.60;;;;;;5070917;28;20196;-60
2022/05/24 07:15:31;;;;;;;3.20;2.63;;;17.90;90.10;;;;;;5070922;28;20190;-60
2022/05/24 07:17:59;;;;;;;4.95;3.10;;;17.90;89.80;;;;;;5070893;28;20275;-60
2022/05/24 07:20:27;;;;;;;5.57;2.60;;;18.00;89.30;;;;;;5071213;28;20194;-60
2022/05/24 07:22:55;;;;;;;2.13;1.97;;;18.00;88.70;;;;;;5068392;28;20220;-58
2022/05/24 07:25:23;;;;;;;4.40;2.60;;;18.10;88.70;;;;;;5059805;28;20194;-60
2022/05/24 07:27:51;;;;;;;3.83;2.80;;;18.20;88.60;;;;;;5070837;28;20206;-59
2022/05/24 07:30:19;;;;;;;3.25;2.83;;;18.30;87.40;;;;;;5071270;28;20224;-60
2022/05/24 07:32:47;;;;;;;4.77;2.30;;;18.40;86.80;;;;;;5070780;28;20198;-60
2022/05/24 07:35:15;;;;;;;5.13;2.60;;;18.50;86.60;;;;;;5071139;28;20577;-60
2022/05/24 07:37:42;;;;;;;5.07;2.70;;;18.60;86.40;;;;;;5068969;28;20201;-60
2022/05/24 07:45:49;;;;;;;2.53;2.33;;;18.80;83.80;;;;;;5070343;28;20202;-60
2022/05/24 07:48:18;;;;;;;7.97;2.40;;;18.80;82.70;;;;;;5070358;28;20235;-59
2022/05/24 07:50:46;;;;;;;2.90;2.20;;;18.80;82.00;;;;;;5070485;28;20876;-60
2022/05/24 07:53:14;;;;;;;3.15;2.00;;;18.80;82.20;;;;;;5069364;28;20195;-60
2022/05/24 07:55:41;;;;;;;2.78;2.22;;;18.90;81.40;;;;;;5070861;28;20668;-60
2022/05/24 07:58:10;;;;;;;6.40;2.33;;;18.70;79.70;;;;;;5070577;28;20239;-60
2022/05/24 08:00:37;;;;;;;6.47;2.10;;;18.90;79.10;;;;;;5070660;28;20609;-60
2022/05/24 08:03:07;;;;;;;8.13;2.50;;;18.90;79.00;;;;;;5067537;28;20254;-59
2022/05/24 08:05:35;;;;;;;4.85;2.22;;;19.00;78.50;;;;;;5070514;28;20729;-59
2022/05/24 08:08:03;;;;;;;4.88;1.90;;;18.90;78.60;;;;;;5068435;28;20215;-59
2022/05/24 08:10:31;;;;;;;2.13;2.03;;;18.90;78.10;;;;;;5070495;28;20200;-59
2022/05/24 08:12:59;;;;;;;2.10;1.98;;;19.00;77.40;;;;;;5069810;28;20192;-59
2022/05/24 08:15:30;;;;;;;2.25;2.00;;;19.00;77.20;;;;;;5069984;28;20196;-59
2022/05/24 08:17:57;;;;;;;4.03;1.90;;;19.00;76.10;;;;;;5070282;28;20200;-60
2022/05/24 08:20:25;;;;;;;2.38;2.22;;;19.00;76.00;;;;;;5070625;28;20196;-59
2022/05/24 08:22:52;;;;;;;6.50;2.22;;;19.00;75.40;;;;;;5066887;28;20215;-59
2022/05/24 08:25:19;;;;;;;4.28;2.20;;;19.00;74.80;;;;;;5058317;28;20194;-59
2022/05/24 08:27:47;;;;;;;8.38;2.30;;;19.10;74.70;;;;;;5069771;28;20200;-60
2022/05/24 08:30:16;;;;;;;1.70;1.60;;;19.20;74.80;;;;;;5069999;28;20572;-59
2022/05/24 08:32:47;;;;;;;5.15;2.25;;;19.20;74.90;;;;;;5069615;28;20205;-59
2022/05/24 08:35:17;;;;;;;3.75;2.10;;;19.30;75.00;;;;;;5070064;28;20232;-60
2022/05/24 08:37:45;;;;;;;5.70;2.17;;;19.40;74.60;;;;;;5067603;28;20207;-60
2022/05/24 08:40:16;;;;;;;2.00;1.80;;;19.50;73.80;;;;;;5070399;28;20239;-59
2022/05/24 08:43:15;;;;;;;2.33;2.10;;;19.50;73.90;;;;;;5081158;28;20724;-60
2022/05/24 08:48:41;;;;;;;4.47;1.98;;;19.80;74.30;;;;;;5069042;28;20278;-60
2022/05/24 08:51:14;;;;;;;2.00;1.90;;;19.90;73.00;;;;;;5069503;28;20603;-60
2022/05/24 08:53:45;;;;;;;1.70;1.60;;;19.90;72.60;;;;;;5067846;28;20203;-60
2022/05/24 08:56:17;;;;;;;2.47;1.83;;;20.00;72.50;;;;;;5069874;28;20189;-60
2022/05/24 08:58:48;;;;;;;3.35;2.00;;;20.00;72.40;;;;;;5069203;28;20229;-60
2022/05/24 09:01:19;;;;;;;4.25;1.88;;;20.10;71.80;;;;;;5069637;28;20216;-60
2022/05/24 09:03:48;;;;;;;3.92;1.80;;;20.10;71.20;;;;;;5067935;28;20230;-60
2022/05/24 09:06:27;;;;;;;3.53;1.60;;;20.20;70.80;;;;;;5070120;28;20208;-59
2022/05/24 09:09:19;;;;;;;5.13;1.83;;;20.30;71.00;;;;;;5066105;28;20193;-59
2022/05/24 09:11:59;;;;;;;1.92;1.70;;;20.40;70.60;;;;;;5069164;28;20197;-60
2022/05/24 09:14:33;;;;;;;7.25;1.60;;;20.50;70.60;;;;;;5069048;28;20283;-60
2022/05/24 09:17:11;;;;;;;1.73;1.63;;;20.60;70.60;;;;;;5069213;28;20192;-60
2022/05/24 09:19:42;;;;;;;2.70;1.70;;;20.80;70.30;;;;;;5069492;28;20192;-60
2022/05/24 09:22:11;;;;;;;1.63;1.52;;;20.90;69.80;;;;;;5066468;28;20232;-60
2022/05/24 09:24:44;;;;;;;2.35;1.80;;;21.00;69.90;;;;;;5067256;28;20288;-58
2022/05/24 09:27:15;;;;;;;2.83;1.80;;;21.00;69.40;;;;;;5069656;28;20197;-59
2022/05/24 09:29:59;;;;;;;2.05;1.63;;;21.00;68.50;;;;;;5068886;28;20195;-60
2022/05/24 09:32:38;;;;;;;3.55;1.70;;;21.00;68.00;;;;;;5068594;28;20197;-59
2022/05/24 09:35:21;;;;;;;5.65;2.00;;;21.00;67.00;;;;;;5068697;28;20197;-60
2022/05/24 09:38:12;;;;;;;1.85;1.55;;;21.00;66.70;;;;;;5066991;28;20193;-60
2022/05/24 09:40:49;;;;;;;3.22;1.80;;;21.00;66.60;;;;;;5068839;28;20189;-59
2022/05/24 09:43:23;;;;;;;1.80;1.70;;;21.00;66.40;;;;;;5069325;28;20236;-60
2022/05/24 09:45:56;;;;;;;1.80;1.70;;;21.00;66.40;;;;;;5073085;28;20200;-60
2022/05/24 09:48:26;;;;;;;5.70;1.80;;;21.00;66.70;;;;;;5072294;28;20638;-59
2022/05/24 09:50:56;;;;;;;1.70;1.60;;;21.00;66.80;;;;;;5072843;28;20672;-58
2022/05/24 09:53:27;;;;;;;6.25;1.75;;;21.10;66.90;;;;;;5071104;28;20225;-59
2022/05/24 09:55:59;;;;;;;2.80;1.40;;;21.00;66.70;;;;;;5073048;28;20189;-60
2022/05/24 09:58:33;;;;;;;2.55;1.60;;;21.10;66.60;;;;;;5072484;28;20284;-60
2022/05/24 10:01:02;;;;;;;2.35;1.83;;;21.10;66.70;;;;;;5070710;28;20230;-60
2022/05/24 10:03:33;;;;;;;1.30;1.25;;;21.10;66.50;;;;;;5070686;28;20254;-60
2022/05/24 10:06:08;;;;;;;2.28;1.90;;;21.10;66.70;;;;;;5072639;28;20650;-60
2022/05/24 10:08:38;;;;;;;1.60;1.50;;;21.20;67.00;;;;;;5070685;28;20197;-60
2022/05/24 10:11:07;;;;;;;2.05;1.80;;;21.10;66.60;;;;;;5072725;28;20189;-60
2022/05/24 10:13:44;;;;;;;4.95;1.77;;;21.10;66.50;;;;;;5072108;28;20220;-60
2022/05/24 10:16:19;;;;;;;4.43;1.55;;;21.10;66.60;;;;;;5072802;28;20562;-60
2022/05/24 10:19:04;;;;;;;1.48;1.38;;;21.10;66.10;;;;;;5071797;28;20201;-60
2022/05/24 10:21:40;;;;;;;4.25;1.42;;;21.00;66.20;;;;;;5071905;28;20535;-60
2022/05/24 10:24:34;;;;;;;1.48;1.33;;;21.00;66.10;;;;;;5060030;28;20197;-60
2022/05/24 10:27:05;;;;;;;5.80;1.48;;;20.90;66.40;;;;;;5059201;28;20242;-60
2022/05/24 10:29:42;;;;;;;1.83;1.67;;;20.90;66.00;;;;;;5072323;28;20189;-60
2022/05/24 10:40:48;;;;;;;4.15;1.73;;;20.80;64.40;;;;;;5070983;28;20676;-60
2022/05/24 10:43:31;;;;;;;1.65;1.55;;;20.70;64.00;;;;;;5072124;28;20205;-61
2022/05/24 10:46:05;;;;;;;2.22;2.03;;;20.70;63.90;;;;;;5071839;28;20196;-60
2022/05/24 10:48:36;;;;;;;3.00;2.03;;;20.70;64.20;;;;;;5063512;28;20647;-59
2022/05/24 10:51:09;;;;;;;4.88;2.88;;;20.70;64.60;;;;;;5071515;28;20648;-59
2022/05/24 10:53:45;;;;;;;2.10;1.90;;;20.70;64.80;;;;;;5063084;28;20193;-60
2022/05/24 10:56:27;;;;;;;5.30;1.88;;;20.80;65.00;;;;;;5098022;28;20201;-60
2022/05/24 10:59:01;;;;;;;4.45;1.60;;;20.80;65.30;;;;;;5068103;28;20193;-60
2022/05/24 11:01:32;;;;;;;2.85;1.80;;;20.80;65.40;;;;;;5072104;28;20207;-60
2022/05/24 11:04:07;;;;;;;1.50;1.42;;;20.90;65.40;;;;;;5067312;28;20211;-60
2022/05/24 11:06:40;;;;;;;3.47;1.70;;;20.90;65.60;;;;;;5071289;28;20204;-60
2022/05/24 11:09:14;;;;;;;2.33;1.63;;;20.90;66.00;;;;;;5068655;28;20672;-59
2022/05/24 11:11:47;;;;;;;2.60;2.00;;;20.90;65.90;;;;;;5071375;28;20279;-59
2022/05/24 11:14:21;;;;;;;1.50;1.40;;;20.90;65.90;;;;;;5071745;28;20193;-58
2022/05/24 11:16:51;;;;;;;1.80;1.70;;;20.90;65.70;;;;;;5071867;28;20192;-59
2022/05/24 11:19:22;;;;;;;1.85;1.58;;;21.00;66.20;;;;;;5071519;28;20722;-59
2022/05/24 11:21:54;;;;;;;1.60;1.50;;;21.00;65.20;;;;;;5070909;28;20185;-59
2022/05/24 11:24:31;;;;;;;1.60;1.50;;;21.00;64.30;;;;;;5057526;28;20276;-59
2022/05/24 11:27:00;;;;;;;2.13;1.52;;;21.00;63.50;;;;;;5059664;28;20204;-58
2022/05/24 11:29:30;;;;;;;5.53;2.13;;;21.00;63.20;;;;;;5103352;28;20213;-58
2022/05/24 11:32:02;;;;;;;2.80;2.00;;;21.00;62.50;;;;;;5071512;28;20187;-58
2022/05/24 11:34:34;;;;;;;5.13;1.80;;;21.00;62.30;;;;;;5071158;28;20181;-58
2022/05/24 11:37:11;;;;;;;2.00;1.70;;;21.00;62.00;;;;;;5070682;28;20192;-58
2022/05/24 11:39:41;;;;;;;1.70;1.60;;;21.00;62.60;;;;;;5070747;28;20598;-58
2022/05/24 11:42:29;;;;;;;7.03;1.80;;;21.00;62.90;;;;;;5070687;28;20236;-58
2022/05/24 11:44:58;;;;;;;4.88;1.67;;;21.00;63.10;;;;;;5070531;28;20270;-59
2022/05/24 11:47:57;;;;;;;1.70;1.50;;;21.00;63.40;;;;;;5070093;28;20668;-58
2022/05/24 11:50:41;;;;;;;3.03;1.60;;;21.00;63.40;;;;;;5070984;28;20201;-59
2022/05/24 11:53:10;;;;;;;1.48;1.27;;;21.00;63.90;;;;;;5068061;28;20205;-59
2022/05/24 11:55:47;;;;;;;2.97;1.80;;;21.00;64.20;;;;;;5070672;28;20213;-59
2022/05/24 11:58:45;;;;;;;6.00;1.52;;;21.00;64.40;;;;;;5070379;28;20197;-59
2022/05/24 12:01:42;;;;;;;4.07;1.30;;;21.00;63.80;;;;;;5067559;28;20197;-59
2022/05/24 12:10:52;;;;;;;4.13;1.50;;;20.80;62.20;;;;;;5070581;28;20189;-59
2022/05/24 12:13:54;;;;;;;1.60;1.45;;;20.80;62.40;;;;;;5070004;28;20192;-59
2022/05/24 12:16:38;;;;;;;4.00;1.63;;;20.80;62.40;;;;;;5070116;28;20280;-59
2022/05/24 12:19:07;;;;;;;2.83;2.25;;;20.70;62.30;;;;;;5070311;28;20217;-59
2022/05/24 12:21:57;;;;;;;1.95;1.80;;;20.70;62.20;;;;;;5069696;28;20197;-59
2022/05/24 12:24:54;;;;;;;4.00;1.90;;;20.70;62.50;;;;;;5056914;28;20234;-59
2022/05/24 12:27:50;;;;;;;1.60;1.50;;;20.60;62.70;;;;;;5061097;28;20189;-59
2022/05/24 12:30:44;;;;;;;1.58;1.48;;;20.60;63.10;;;;;;5058566;28;20213;-59
2022/05/24 12:33:22;;;;;;;2.95;1.52;;;20.60;63.70;;;;;;5069390;28;20573;-60
2022/05/24 12:35:52;;;;;;;4.80;1.65;;;20.50;64.10;;;;;;5069547;28;20665;-60
2022/05/24 12:38:24;;;;;;;2.20;1.85;;;20.50;64.90;;;;;;5068719;28;20608;-59
2022/05/24 12:40:51;;;;;;;4.65;1.83;;;20.50;65.70;;;;;;5069431;28;20193;-59
2022/05/24 12:43:19;;;;;;;3.53;1.90;;;20.40;66.20;;;;;;5069244;28;20287;-59
2022/05/24 12:45:48;;;;;;;1.65;1.52;;;20.40;67.20;;;;;;5069691;28;20221;-59
2022/05/24 12:48:35;;;;;;;4.47;2.08;;;20.30;68.30;;;;;;5066975;28;20712;-59
2022/05/24 12:51:04;;;;;;;2.40;2.05;;;20.20;69.50;;;;;;5069598;28;20629;-59
2022/05/24 12:53:33;;;;;;;5.20;2.17;;;20.10;71.40;;;;;;5068220;28;20258;-60
2022/05/24 12:56:04;;;;;;;2.30;1.80;;;20.00;73.00;;;;;;5069796;28;20193;-59
2022/05/24 12:58:34;;;;;;;7.28;1.80;;;19.80;74.00;;;;;;5069292;28;20289;-59
2022/05/24 13:01:25;;;;;;;4.72;2.40;;;19.70;75.10;;;;;;5062001;28;20292;-59
2022/05/24 13:04:07;;;;;;;2.08;1.80;;;19.70;77.00;;;;;;5066780;28;20585;-59
2022/05/24 13:06:46;;;;;;;2.15;2.05;;;19.60;78.50;;;;;;5069164;28;20726;-59
2022/05/24 13:09:20;;;;;;;3.78;1.77;;;19.50;80.10;;;;;;5067565;28;20294;-59
2022/05/24 13:11:51;;;;;;;2.63;1.83;;;19.40;81.30;;;;;;5068636;28;20196;-59
2022/05/24 13:14:48;;;;;;;3.03;1.73;;;19.30;82.20;;;;;;5069800;28;20590;-59
2022/05/24 13:17:20;;;;;;;2.30;2.10;;;19.20;82.60;;;;;;5066849;28;20209;-59
2022/05/24 13:19:56;;;;;;;1.90;1.80;;;19.10;83.30;;;;;;5069479;28;20230;-59
2022/05/24 13:22:25;;;;;;;2.15;1.92;;;19.10;83.90;;;;;;5066379;28;20196;-59
2022/05/24 13:24:57;;;;;;;2.00;1.90;;;19.00;84.30;;;;;;5068499;28;20649;-59
2022/05/24 13:27:25;;;;;;;1.75;1.65;;;19.00;84.70;;;;;;5067551;28;20216;-59
2022/05/24 13:35:30;;;;;;;1.90;1.80;;;19.00;86.10;;;;;;5069550;28;20200;-60
2022/05/24 13:38:02;;;;;;;3.97;2.40;;;18.90;87.30;;;;;;5066841;28;20607;-59
2022/05/24 13:40:42;;;;;;;3.13;2.83;;;18.90;87.00;;;;;;5068809;28;20672;-59
2022/05/24 13:43:09;;;;;;;8.02;3.00;;;18.90;87.30;;;;;;5067464;28;20205;-58
2022/05/24 13:45:38;;;;;;;3.28;2.97;;;18.90;87.50;;;;;;5069330;28;20193;-59
2022/05/24 13:48:26;;;;;;;2.67;2.47;;;18.80;87.50;;;;;;5068265;28;20411;-59
2022/05/24 13:51:03;;;;;;;2.30;2.15;;;18.80;87.60;;;;;;5068521;28;20519;-58
2022/05/24 13:53:36;;;;;;;2.58;2.30;;;18.80;87.70;;;;;;5067371;28;20533;-58
2022/05/24 13:56:06;;;;;;;4.30;2.17;;;18.90;88.00;;;;;;5067722;28;20266;-59
2022/05/24 13:58:36;;;;;;;2.00;1.90;;;18.90;88.10;;;;;;5068561;28;20236;-59
2022/05/24 14:01:06;;;;;;;2.40;2.20;;;18.90;88.30;;;;;;5064646;28;20189;-59
2022/05/24 14:03:48;;;;;;;3.80;2.28;;;18.90;88.50;;;;;;5065808;28;20224;-58